Portada
METAR-TAF:

METAR-TAF

Aeroports :

Waterford, Irlanda

latitud: 52-11-14N, longitud: 7-05-13W, altitud: 36 m

Observació

L'informe es va fer fa 33 minuts, a les 09:30 UTC
Vent 11 kt del Oest, variant entre Sud-Oest i Nord-Oest
Temperatura 16°C
Humitat 94%
Pressió 1020 hPa
Visibilitat 10 km o més
Cel ennuvolat a una alçada de 500 ft

METAR: EIWF 220930Z 26011KT 220V310 9999 BKN005 16/15 Q1020

Hora: 11:03 (10:03 UTC)

Pronòstic

L'informe es va fer fa 2 hores i 3 minuts, a les 08:00 UTC
Pronòstic vàlid del 22 a les 09 UTC al 22 a les 18 UTC
Vent 15 kt del Oest/Sud-Oest amb ràfegues de 25 kt
Visibilitat 10 km o més
Cel ennuvolat a una alçada de 400 ft
Probabilitat 30% :
Temporalment
l' 22 a les 09 UTC al 22 a les 11 UTC
Visibilitat: 2000 m
Cel ennuvolat a una alçada de 100 ft
boirina
Evolucionant progressivament
l' 22 a les 10 UTC al 22 a les 13 UTC
Cel ennuvolat a una alçada de 1600 ft

TAF: EIWF 220800Z 2209/2218 24015G25KT 9999 BKN004 PROB30 TEMPO 2209/2211 2000 BR BKN001 BECMG 2210/2213 BKN016

Observacions i pronòstics meteorològics de més de 4000 aeroports (METAR i TAF).

Les estacions disponibles són els punts grocs i vermells al mapa.

Posi el ratolí al punt desitjat per veure el nom de l'estació.

Feu clic per veure les observacions i els pronòstics meteorològics.

Per canviar el mapa: feu clic els botons verds amb una creu de color negre per apropar; al botó verd amb un guió per allunyar la imatge; o en les fletxes verdes per a mapes adjacents.


METAR-TAF: